createdAt,value
2023-02-07T00:01:23.878Z,40.30
2023-02-07T00:03:53.640Z,39.00
2023-02-07T00:06:27.814Z,44.70
2023-02-07T00:08:54.734Z,41.20
2023-02-07T00:13:50.990Z,38.80
2023-02-07T00:16:18.186Z,38.80
2023-02-07T00:18:44.848Z,41.00
2023-02-07T00:21:16.050Z,41.40
2023-02-07T00:23:43.031Z,31.80
2023-02-07T00:26:10.501Z,37.00
2023-02-07T00:28:37.327Z,43.60
2023-02-07T00:31:08.012Z,38.20
2023-02-07T00:33:35.871Z,31.20
2023-02-07T00:36:03.812Z,32.60
2023-02-07T00:38:30.756Z,32.20
2023-02-07T00:40:57.275Z,30.00
2023-02-07T00:43:29.579Z,31.90
2023-02-07T00:45:59.095Z,28.70
2023-02-07T00:48:27.117Z,30.10
2023-02-07T00:50:54.563Z,32.50
2023-02-07T00:53:21.705Z,25.20
2023-02-07T00:55:48.359Z,33.70
2023-02-07T00:58:15.099Z,32.70
2023-02-07T01:00:41.821Z,32.20
2023-02-07T01:03:08.472Z,33.40
2023-02-07T01:05:36.370Z,28.70
2023-02-07T01:08:03.513Z,31.70
2023-02-07T01:10:30.083Z,32.40
2023-02-07T01:12:56.501Z,29.90
2023-02-07T01:15:23.386Z,31.60
2023-02-07T01:17:50.642Z,31.10
2023-02-07T01:20:17.597Z,31.80
2023-02-07T01:22:44.230Z,36.70
2023-02-07T01:25:11.075Z,31.20
2023-02-07T01:27:37.611Z,33.50
2023-02-07T01:30:04.735Z,37.00
2023-02-07T01:34:58.474Z,29.50
2023-02-07T01:37:25.468Z,34.40
2023-02-07T01:39:51.875Z,35.40
2023-02-07T01:42:18.539Z,28.70
2023-02-07T01:44:51.593Z,27.90
2023-02-07T01:47:20.041Z,29.40
2023-02-07T01:49:48.451Z,28.00
2023-02-07T01:52:17.310Z,28.50
2023-02-07T01:54:45.029Z,27.60
2023-02-07T01:57:12.666Z,31.20
2023-02-07T01:59:43.552Z,28.70
2023-02-07T02:02:11.610Z,29.40
2023-02-07T02:04:38.962Z,29.50
2023-02-07T02:07:06.630Z,26.50
2023-02-07T02:09:33.569Z,34.00
2023-02-07T02:14:56.321Z,28.10
2023-02-07T02:17:28.352Z,32.10
2023-02-07T02:20:13.349Z,33.50
2023-02-07T02:22:58.318Z,30.10
2023-02-07T02:25:24.781Z,27.90
2023-02-07T02:28:09.860Z,29.00
2023-02-07T02:30:48.734Z,27.70
2023-02-07T02:33:21.311Z,30.40
2023-02-07T02:35:47.782Z,32.80
2023-02-07T02:38:17.185Z,28.90
2023-02-07T02:40:49.488Z,34.30
2023-02-07T02:43:23.435Z,27.70
2023-02-07T02:46:10.253Z,24.90
2023-02-07T02:48:37.301Z,29.00
2023-02-07T02:51:04.022Z,32.60
2023-02-07T02:53:30.578Z,27.30
2023-02-07T02:56:07.640Z,31.10
2023-02-07T02:58:37.262Z,26.30
2023-02-07T03:01:03.630Z,29.10
2023-02-07T03:03:30.055Z,28.50
2023-02-07T03:05:56.630Z,26.70
2023-02-07T03:08:41.347Z,27.90
2023-02-07T03:11:13.611Z,26.40
2023-02-07T03:13:55.686Z,23.00
2023-02-07T03:16:23.530Z,27.90
2023-02-07T03:18:59.985Z,28.40
2023-02-07T03:21:29.391Z,22.60
2023-02-07T03:24:00.059Z,26.20
2023-02-07T03:26:27.618Z,23.00
2023-02-07T03:28:55.567Z,27.80
2023-02-07T03:31:26.117Z,26.40
2023-02-07T03:33:55.417Z,27.80
2023-02-07T03:36:24.139Z,21.40
2023-02-07T03:38:50.930Z,27.40
2023-02-07T03:41:29.547Z,30.00
2023-02-07T03:43:57.821Z,29.00
2023-02-07T03:46:24.583Z,24.50
2023-02-07T03:48:51.254Z,25.60
2023-02-07T03:51:18.551Z,25.90
2023-02-07T03:53:45.412Z,28.10
2023-02-07T03:56:12.029Z,26.00
2023-02-07T03:58:38.883Z,22.60
2023-02-07T04:01:05.734Z,25.40
2023-02-07T04:03:32.289Z,25.60
2023-02-07T04:05:59.091Z,25.60
2023-02-07T04:08:25.500Z,19.60
2023-02-07T04:11:02.505Z,24.00
2023-02-07T04:13:29.560Z,25.70
2023-02-07T04:15:56.397Z,24.40
2023-02-07T04:18:23.161Z,27.60
2023-02-07T04:20:49.585Z,25.10
2023-02-07T04:23:16.246Z,26.80
2023-02-07T04:25:43.040Z,23.60
2023-02-07T04:28:09.548Z,24.80
2023-02-07T04:30:36.048Z,26.20
2023-02-07T04:33:03.311Z,27.20
2023-02-07T04:35:29.761Z,27.10
2023-02-07T04:37:56.211Z,23.10
2023-02-07T04:40:22.857Z,28.60
2023-02-07T04:42:49.184Z,28.10
2023-02-07T04:45:15.460Z,29.30
2023-02-07T04:47:41.928Z,31.10
2023-02-07T04:50:08.652Z,32.10
2023-02-07T04:52:35.297Z,33.80
2023-02-07T04:55:01.967Z,32.60
2023-02-07T04:57:28.595Z,28.70
2023-02-07T04:59:55.231Z,32.00
2023-02-07T05:02:24.942Z,35.30
2023-02-07T05:04:52.042Z,34.30
2023-02-07T05:07:19.515Z,32.10
2023-02-07T05:09:46.084Z,32.00
2023-02-07T05:12:12.578Z,31.50
2023-02-07T05:14:39.076Z,33.80
2023-02-07T05:17:05.937Z,39.10
2023-02-07T05:19:33.349Z,37.10
2023-02-07T05:21:59.883Z,36.10
2023-02-07T05:24:26.372Z,34.50
2023-02-07T05:26:53.568Z,30.80
2023-02-07T05:29:20.268Z,32.80
2023-02-07T05:32:06.939Z,34.50
2023-02-07T05:36:59.624Z,34.80
2023-02-07T05:39:26.662Z,38.00
2023-02-07T05:41:53.012Z,40.90
2023-02-07T05:44:19.528Z,39.30
2023-02-07T05:46:45.968Z,39.50
2023-02-07T05:49:12.448Z,51.60
2023-02-07T05:51:38.918Z,39.80
2023-02-07T05:54:05.391Z,42.10
2023-02-07T05:56:31.837Z,43.80
2023-02-07T05:58:58.293Z,44.20
2023-02-07T06:01:25.111Z,47.80
2023-02-07T06:03:51.721Z,48.80
2023-02-07T06:06:18.207Z,47.50
2023-02-07T06:08:44.820Z,49.80
2023-02-07T06:11:11.826Z,45.20
2023-02-07T06:13:38.808Z,45.60
2023-02-07T06:16:05.606Z,41.10
2023-02-07T06:18:32.084Z,49.40
2023-02-07T06:20:58.717Z,49.50
2023-02-07T06:23:25.492Z,42.90
2023-02-07T06:25:51.853Z,46.40
2023-02-07T06:28:18.360Z,53.80
2023-02-07T06:30:45.227Z,45.40
2023-02-07T06:33:11.765Z,48.60
2023-02-07T06:35:39.022Z,48.90
2023-02-07T06:38:06.415Z,46.20
2023-02-07T06:40:32.937Z,43.10
2023-02-07T06:42:59.584Z,45.80
2023-02-07T06:45:26.418Z,42.40
2023-02-07T06:47:52.851Z,40.30
2023-02-07T06:50:19.280Z,48.60
2023-02-07T06:52:46.024Z,40.30
2023-02-07T06:55:12.852Z,39.90
2023-02-07T07:00:06.313Z,40.60
2023-02-07T07:02:33.351Z,42.40
2023-02-07T07:07:26.365Z,49.10
2023-02-07T07:09:52.896Z,47.40
2023-02-07T07:12:19.840Z,31.60
2023-02-07T07:14:46.989Z,47.10
2023-02-07T07:17:14.628Z,61.90
2023-02-07T07:19:41.128Z,124.50
2023-02-07T07:22:07.643Z,113.30
2023-02-07T07:24:34.063Z,79.30
2023-02-07T07:27:00.983Z,113.40
2023-02-07T07:29:28.443Z,135.40
2023-02-07T07:31:55.278Z,82.70
2023-02-07T07:34:21.731Z,57.60
2023-02-07T07:36:48.403Z,54.10
2023-02-07T07:39:16.533Z,57.30
2023-02-07T07:41:43.197Z,521.40
2023-02-07T07:44:09.795Z,935.40
2023-02-07T07:46:36.252Z,451.60
2023-02-07T07:49:02.785Z,94.80
2023-02-07T07:51:29.499Z,55.20
2023-02-07T07:53:56.243Z,51.90
2023-02-07T07:56:23.296Z,53.80
2023-02-07T07:58:49.665Z,49.10
2023-02-07T08:01:16.316Z,99.10
2023-02-07T08:03:43.114Z,66.70
2023-02-07T08:06:10.245Z,60.40
2023-02-07T08:08:36.939Z,57.00
2023-02-07T08:11:04.570Z,55.20
2023-02-07T08:13:33.075Z,53.90
2023-02-07T08:16:01.028Z,54.50
2023-02-07T08:18:28.758Z,55.10
2023-02-07T08:20:55.655Z,53.50
2023-02-07T08:23:22.279Z,56.30
2023-02-07T08:25:49.622Z,63.00
2023-02-07T08:28:16.459Z,56.70
2023-02-07T08:30:49.072Z,56.60
2023-02-07T08:33:16.148Z,58.70
2023-02-07T08:35:43.048Z,58.40
2023-02-07T08:38:09.685Z,56.40
2023-02-07T08:40:36.613Z,59.40
2023-02-07T08:43:06.318Z,58.50
2023-02-07T08:45:33.311Z,55.70
2023-02-07T08:50:26.479Z,63.40
2023-02-07T08:52:52.879Z,76.10
2023-02-07T08:55:19.395Z,79.00
2023-02-07T08:57:45.919Z,55.30
2023-02-07T09:00:12.847Z,55.20
2023-02-07T09:02:39.410Z,86.40
2023-02-07T09:05:07.245Z,71.10
2023-02-07T09:07:34.393Z,83.10
2023-02-07T09:12:30.746Z,55.40
2023-02-07T09:14:57.378Z,51.30
2023-02-07T09:17:23.911Z,461.20
2023-02-07T09:19:50.956Z,155.20
2023-02-07T09:22:17.489Z,72.60
2023-02-07T09:24:44.240Z,58.20
2023-02-07T09:27:11.045Z,86.30
2023-02-07T09:29:37.452Z,89.40
2023-02-07T09:32:05.580Z,231.70
2023-02-07T09:34:33.334Z,644.20
2023-02-07T09:36:59.975Z,180.10
2023-02-07T09:39:26.611Z,108.20
2023-02-07T09:42:06.970Z,97.40
2023-02-07T09:45:03.381Z,52.70
2023-02-07T09:47:32.089Z,38.70
2023-02-07T09:50:01.436Z,80.50
2023-02-07T09:53:00.766Z,71.80
2023-02-07T09:55:43.923Z,84.70
2023-02-07T09:58:16.832Z,116.00
2023-02-07T10:00:46.063Z,33.00
2023-02-07T10:03:25.692Z,26.80
2023-02-07T10:06:12.875Z,48.20
2023-02-07T10:08:45.607Z,33.70
2023-02-07T10:11:14.878Z,32.30
2023-02-07T10:13:49.868Z,55.40
2023-02-07T10:16:22.754Z,42.20
2023-02-07T10:18:57.842Z,30.50
2023-02-07T10:22:02.925Z,36.10
2023-02-07T10:24:40.969Z,47.50
2023-02-07T10:27:12.841Z,38.70
2023-02-07T10:29:42.332Z,37.70
2023-02-07T10:32:28.058Z,42.40
2023-02-07T10:34:56.347Z,53.20
2023-02-07T10:37:24.537Z,305.50
2023-02-07T10:40:00.684Z,117.10
2023-02-07T10:42:28.464Z,57.40
2023-02-07T10:44:55.303Z,45.30
2023-02-07T10:47:22.843Z,83.60
2023-02-07T10:49:50.913Z,62.70
2023-02-07T10:52:26.393Z,46.60
2023-02-07T10:54:57.235Z,31.20
2023-02-07T10:57:24.242Z,199.80
2023-02-07T11:00:14.602Z,82.20
2023-02-07T11:02:49.223Z,31.30
2023-02-07T11:05:16.840Z,28.00
2023-02-07T11:08:03.024Z,50.30
2023-02-07T11:10:34.979Z,25.30
2023-02-07T11:13:02.638Z,20.70
2023-02-07T11:15:36.610Z,31.00
2023-02-07T11:18:03.996Z,23.50
2023-02-07T11:20:35.764Z,27.60
2023-02-07T11:23:13.757Z,26.20
2023-02-07T11:25:42.337Z,101.30
2023-02-07T11:28:17.994Z,25.60
2023-02-07T11:30:44.720Z,26.60
2023-02-07T11:33:23.040Z,23.00
2023-02-07T11:36:11.231Z,18.50
2023-02-07T11:38:45.943Z,27.10
2023-02-07T11:41:16.792Z,22.80
2023-02-07T11:43:51.877Z,22.50
2023-02-07T11:46:18.358Z,23.00
2023-02-07T11:48:47.279Z,25.10
2023-02-07T11:51:15.901Z,19.00
2023-02-07T11:53:48.196Z,15.70
2023-02-07T11:56:25.248Z,19.70
2023-02-07T11:58:53.805Z,19.30
2023-02-07T12:01:29.054Z,17.80
2023-02-07T12:04:00.517Z,15.90
2023-02-07T12:06:37.589Z,17.60
2023-02-07T12:09:07.196Z,18.10
2023-02-07T12:11:36.698Z,22.20
2023-02-07T12:14:09.173Z,19.80
2023-02-07T12:16:42.755Z,19.50
2023-02-07T12:19:14.641Z,19.90
2023-02-07T12:21:46.595Z,20.10
2023-02-07T12:24:18.043Z,20.10
2023-02-07T12:27:04.252Z,26.30
2023-02-07T12:29:31.097Z,24.30
2023-02-07T12:32:00.669Z,25.10
2023-02-07T12:34:30.598Z,24.90
2023-02-07T12:37:23.796Z,25.10
2023-02-07T12:39:53.168Z,27.60
2023-02-07T12:42:36.900Z,24.80
2023-02-07T12:45:05.279Z,27.50
2023-02-07T12:47:46.006Z,28.20
2023-02-07T12:50:12.681Z,25.30
2023-02-07T12:52:58.064Z,25.20
2023-02-07T12:55:40.534Z,21.50
2023-02-07T12:58:25.225Z,20.50
2023-02-07T13:01:07.414Z,26.90
2023-02-07T13:03:49.629Z,23.70
2023-02-07T13:06:29.070Z,22.50
2023-02-07T13:09:04.628Z,14.00
2023-02-07T13:11:39.337Z,13.50
2023-02-07T13:14:21.164Z,14.00
2023-02-07T13:16:57.079Z,15.70
2023-02-07T13:19:32.926Z,19.60
2023-02-07T13:22:08.806Z,17.10
2023-02-07T13:24:36.986Z,16.40
2023-02-07T13:27:05.993Z,17.50
2023-02-07T13:29:34.428Z,18.00
2023-02-07T13:32:02.228Z,19.40
2023-02-07T13:34:35.258Z,20.10
2023-02-07T13:37:11.234Z,23.00
2023-02-07T13:39:54.471Z,20.60
2023-02-07T13:42:26.219Z,21.00
2023-02-07T13:45:06.474Z,18.70
2023-02-07T13:47:40.649Z,22.40
2023-02-07T13:50:13.492Z,21.60
2023-02-07T13:52:43.309Z,23.10
2023-02-07T13:55:17.726Z,21.40
2023-02-07T13:58:03.293Z,18.00
2023-02-07T14:00:53.250Z,24.20
2023-02-07T14:03:21.645Z,19.00
2023-02-07T14:05:48.335Z,20.20
2023-02-07T14:08:21.574Z,17.80
2023-02-07T14:10:55.171Z,19.10
2023-02-07T14:13:32.975Z,19.60
2023-02-07T14:15:59.659Z,20.80
2023-02-07T14:18:34.131Z,22.80
2023-02-07T14:21:01.888Z,18.80
2023-02-07T14:23:47.370Z,20.20
2023-02-07T14:26:32.948Z,18.90
2023-02-07T14:29:18.603Z,19.30
2023-02-07T14:31:56.053Z,17.50
2023-02-07T14:34:24.292Z,14.60
2023-02-07T14:36:54.513Z,16.60
2023-02-07T14:39:29.345Z,20.20
2023-02-07T14:42:03.044Z,16.60
2023-02-07T14:44:34.303Z,17.20
2023-02-07T14:47:02.137Z,16.70
2023-02-07T14:49:31.545Z,15.40
2023-02-07T14:51:59.645Z,15.00
2023-02-07T14:54:28.833Z,13.60
2023-02-07T14:56:55.568Z,14.80
2023-02-07T14:59:30.287Z,16.60
2023-02-07T15:02:18.267Z,87.10
2023-02-07T15:04:45.178Z,49.10
2023-02-07T15:07:12.072Z,30.70
2023-02-07T15:09:38.551Z,20.00
2023-02-07T15:12:15.717Z,20.40
2023-02-07T15:14:46.086Z,34.70
2023-02-07T15:17:12.684Z,22.30
2023-02-07T15:19:41.112Z,19.80
2023-02-07T15:22:20.465Z,17.40
2023-02-07T15:24:54.844Z,17.20
2023-02-07T15:27:26.305Z,19.40
2023-02-07T15:29:57.535Z,17.50
2023-02-07T15:32:29.287Z,14.20
2023-02-07T15:34:57.652Z,15.50
2023-02-07T15:37:25.931Z,17.60
2023-02-07T15:39:53.898Z,16.60
2023-02-07T15:42:21.052Z,15.60
2023-02-07T15:44:49.083Z,15.40
2023-02-07T15:47:27.943Z,18.70
2023-02-07T15:49:59.484Z,14.40
2023-02-07T15:52:34.382Z,18.20
2023-02-07T15:55:17.076Z,14.40
2023-02-07T15:57:44.483Z,14.60
2023-02-07T16:02:47.802Z,15.10
2023-02-07T16:05:27.312Z,17.20
2023-02-07T16:07:55.322Z,15.90
2023-02-07T16:10:24.610Z,17.30
2023-02-07T16:12:55.297Z,17.30
2023-02-07T16:15:22.092Z,16.60
2023-02-07T16:17:48.820Z,16.90
2023-02-07T16:20:16.172Z,15.00
2023-02-07T16:25:20.605Z,16.00
2023-02-07T16:27:48.744Z,18.70
2023-02-07T16:30:27.193Z,18.10
2023-02-07T16:32:53.653Z,19.20
2023-02-07T16:35:24.703Z,19.10
2023-02-07T16:37:54.517Z,15.70
2023-02-07T16:40:25.904Z,17.20
2023-02-07T16:42:54.096Z,25.60
2023-02-07T16:45:22.970Z,22.10
2023-02-07T16:47:50.033Z,18.80
2023-02-07T16:50:18.512Z,20.50
2023-02-07T16:52:46.345Z,18.70
2023-02-07T16:55:13.012Z,18.80
2023-02-07T16:57:40.979Z,17.90
2023-02-07T17:00:08.997Z,17.90
2023-02-07T17:02:36.199Z,19.20
2023-02-07T17:05:03.764Z,17.30
2023-02-07T17:07:30.426Z,19.40
2023-02-07T17:09:57.339Z,19.80
2023-02-07T17:12:24.282Z,20.60
2023-02-07T17:14:51.737Z,20.60
2023-02-07T17:19:46.929Z,19.30
2023-02-07T17:22:14.722Z,19.50
2023-02-07T17:24:41.893Z,17.20
2023-02-07T17:27:10.143Z,19.60
2023-02-07T17:29:36.883Z,20.10
2023-02-07T17:32:04.337Z,20.00
2023-02-07T17:34:31.289Z,19.10
2023-02-07T17:36:58.180Z,20.30
2023-02-07T17:39:27.244Z,21.60
2023-02-07T17:41:54.568Z,20.10
2023-02-07T17:44:23.673Z,18.90
2023-02-07T17:46:50.503Z,19.80
2023-02-07T17:49:17.659Z,15.50
2023-02-07T17:51:44.500Z,17.80
2023-02-07T17:54:11.545Z,16.90
2023-02-07T17:59:06.656Z,17.80
2023-02-07T18:01:33.480Z,17.50
2023-02-07T18:04:01.848Z,17.10
2023-02-07T18:06:28.913Z,31.40
2023-02-07T18:11:24.378Z,137.30
2023-02-07T18:13:50.990Z,53.60
2023-02-07T18:16:21.523Z,28.60
2023-02-07T18:18:52.141Z,30.40
2023-02-07T18:21:19.408Z,43.50
2023-02-07T18:23:46.238Z,35.60
2023-02-07T18:26:19.272Z,29.40
2023-02-07T18:28:46.589Z,29.10
2023-02-07T18:33:41.080Z,28.90
2023-02-07T18:36:09.658Z,26.70
2023-02-07T18:38:36.916Z,32.40
2023-02-07T18:41:10.772Z,30.80
2023-02-07T18:43:37.766Z,72.40
2023-02-07T18:46:11.935Z,46.90
2023-02-07T18:48:38.621Z,57.30
2023-02-07T18:51:10.168Z,41.20
2023-02-07T18:53:37.670Z,42.10
2023-02-07T18:56:09.686Z,46.30
2023-02-07T18:58:36.192Z,26.30
2023-02-07T19:01:10.188Z,22.90
2023-02-07T19:06:07.408Z,26.20
2023-02-07T19:11:02.814Z,21.50
2023-02-07T19:13:29.935Z,23.30
2023-02-07T19:16:03.378Z,24.70
2023-02-07T19:18:31.032Z,20.70
2023-02-07T19:21:05.856Z,19.30
2023-02-07T19:23:32.902Z,27.90
2023-02-07T19:25:59.800Z,22.00
2023-02-07T19:28:26.931Z,22.60
2023-02-07T19:30:53.836Z,22.20
2023-02-07T19:33:21.732Z,24.40
2023-02-07T19:35:50.084Z,36.20
2023-02-07T19:38:17.225Z,29.70
2023-02-07T19:40:44.895Z,36.60
2023-02-07T19:43:12.129Z,37.00
2023-02-07T19:48:05.657Z,23.60
2023-02-07T19:50:32.567Z,34.20
2023-02-07T19:55:27.061Z,24.40
2023-02-07T19:57:54.206Z,24.00
2023-02-07T20:00:21.055Z,21.10
2023-02-07T20:02:47.886Z,31.50
2023-02-07T20:05:14.844Z,46.70
2023-02-07T20:07:41.683Z,38.60
2023-02-07T20:10:10.099Z,42.00
2023-02-07T20:12:36.905Z,38.00
2023-02-07T20:15:04.454Z,25.70
2023-02-07T20:19:58.548Z,28.50
2023-02-07T20:22:27.130Z,30.10
2023-02-07T20:24:54.075Z,29.50
2023-02-07T20:27:22.917Z,26.10
2023-02-07T20:29:50.940Z,22.80
2023-02-07T20:32:18.184Z,27.10
2023-02-07T20:34:44.928Z,27.10
2023-02-07T20:37:11.987Z,32.30
2023-02-07T20:39:39.044Z,29.30
2023-02-07T20:42:06.069Z,35.10
2023-02-07T20:44:32.662Z,37.20
2023-02-07T20:46:59.918Z,32.00
2023-02-07T20:49:28.345Z,32.70
2023-02-07T20:51:55.793Z,28.40
2023-02-07T20:56:51.310Z,26.50
2023-02-07T21:01:45.722Z,27.70
2023-02-07T21:04:13.065Z,26.30
2023-02-07T21:09:09.010Z,27.30
2023-02-07T21:11:40.154Z,28.90
2023-02-07T21:14:08.622Z,28.80
2023-02-07T21:16:36.279Z,27.60
2023-02-07T21:19:04.150Z,31.90
2023-02-07T21:23:57.935Z,28.00
2023-02-07T21:28:58.066Z,26.30
2023-02-07T21:31:24.949Z,31.00
2023-02-07T21:33:53.804Z,31.90
2023-02-07T21:36:21.850Z,24.30
2023-02-07T21:38:50.046Z,27.70
2023-02-07T21:41:20.230Z,27.30
2023-02-07T21:43:47.609Z,25.60
2023-02-07T21:46:21.410Z,23.00
2023-02-07T21:48:51.414Z,27.60
2023-02-07T21:51:19.710Z,26.60
2023-02-07T21:53:47.851Z,30.50
2023-02-07T21:56:18.924Z,23.30
2023-02-07T21:58:45.988Z,23.60
2023-02-07T22:01:15.682Z,44.10
2023-02-07T22:03:44.792Z,33.10
2023-02-07T22:06:12.750Z,24.70
2023-02-07T22:08:40.601Z,38.00
2023-02-07T22:11:08.475Z,26.60
2023-02-07T22:13:36.857Z,27.40
2023-02-07T22:16:04.737Z,25.50
2023-02-07T22:18:31.563Z,20.90
2023-02-07T22:21:04.965Z,26.30
2023-02-07T22:23:32.524Z,20.40
2023-02-07T22:26:00.489Z,21.50
2023-02-07T22:28:28.248Z,24.40
2023-02-07T22:30:57.599Z,26.90
2023-02-07T22:33:26.036Z,20.50
2023-02-07T22:35:53.066Z,23.60
2023-02-07T22:38:21.730Z,19.90
2023-02-07T22:40:51.258Z,22.80
2023-02-07T22:43:18.409Z,21.10
2023-02-07T22:45:47.945Z,18.70
2023-02-07T22:48:15.691Z,18.60
2023-02-07T22:50:43.542Z,20.50
2023-02-07T22:53:11.513Z,18.80
2023-02-07T22:55:41.412Z,26.20
2023-02-07T22:58:11.745Z,29.40
2023-02-07T23:00:38.630Z,25.40
2023-02-07T23:03:05.419Z,19.30
2023-02-07T23:05:32.170Z,25.20
2023-02-07T23:07:59.007Z,27.60
2023-02-07T23:10:25.739Z,23.10
2023-02-07T23:12:52.375Z,30.00
2023-02-07T23:15:18.955Z,23.20
2023-02-07T23:17:45.606Z,37.10
2023-02-07T23:20:12.776Z,25.00
2023-02-07T23:22:39.710Z,107.60
2023-02-07T23:25:06.744Z,27.70
2023-02-07T23:27:33.268Z,29.30
2023-02-07T23:29:59.605Z,23.30
2023-02-07T23:32:26.009Z,23.00
2023-02-07T23:34:52.421Z,23.00
2023-02-07T23:37:21.934Z,24.80
2023-02-07T23:39:48.880Z,21.50
2023-02-07T23:42:15.511Z,24.80
2023-02-07T23:44:42.140Z,24.50
2023-02-07T23:47:08.672Z,22.20
2023-02-07T23:49:35.334Z,24.80
2023-02-07T23:52:01.769Z,27.20
2023-02-07T23:54:28.342Z,23.20
2023-02-07T23:56:55.122Z,31.90
2023-02-07T23:59:21.458Z,26.90
